METAR AND TAF INFORMATION
METAR FOR KFXE
KFXE 161053Z 35003KT 10SM CLR 27/24 A3001 RMK AO2 SLP165 T02720244
KFXE 160953Z 36003KT 10SM SCT120 27/24 A2999 RMK AO2 SLP159 T02720239
KFXE 160853Z 00000KT 10SM OVC120 27/24 A2998 RMK AO2 SLP156 T02720239 53000
KFXE 161120Z 1612/1712 VRB03KT P6SM SCT080 BKN100
FM161500 08007KT P6SM VCSH FEW020 SCT040 BKN100
FM161800 08010KT P6SM FEW025 SCT050 BKN150
FM170100 07006KT P6SM FEW035 SCT060

 AIRPORT MAP

 RUNWAY INFORMATION
Runway 08 Runway length 6001 ft Runway width 100 ft
Runway elevation 12 ft Runway displaced threshold 0 ft Runway heading 84
Runway 26 Runway length 6001 ft Runway width 100 ft
Runway elevation 12 ft Runway displaced threshold 0 ft Runway heading 264
Runway 13 Runway length 4000 ft Runway width 100 ft
Runway elevation 12 ft Runway displaced threshold 0 ft Runway heading 129
Runway 31 Runway length 4000 ft Runway width 100 ft
Runway elevation 12 ft Runway displaced threshold 0 ft Runway heading 309

 AIRPORT FREQUENCIES
Type A/D Name MIAMI APP/ Frequency 119.7 MHZ
Type ATIS Name ATIS Frequency 119.85 MHZ
Type CLD Name CLNC DEL Frequency 127.95 MHZ
Type GND Name EXECUTIVE Frequency 121.75 MHZ
Type TWR Name EXECUTIVE Frequency 120.9 MHZ
Type UNIC Name UNICOM Frequency 122.95 MHZ

 AIRPORT NEAR NAVIGATION AIDS

-